Time;durP1;ratioP1;P1;durP2;ratioP2;P2;SDS_P1;SDS_P2;PMS_P1;PMS_P2;Temp;Humidity;BMP_temperature;BMP_pressure;BME280_temperature;BME280_humidity;BME280_pressure;Samples;Min_cycle;Max_cycle;Signal;HPM_P1;HPM_P2
2021/08/21 00:01:05;;;;;;;12.82;4.70;;;;;;;24.61;46.29;98834.44;4994973;28;20525;-78
2021/08/21 00:03:33;;;;;;;13.93;4.97;;;;;;;24.69;46.13;98834.44;4997250;28;20046;-87
2021/08/21 00:06:00;;;;;;;13.27;4.88;;;;;;;24.73;46.24;98826.84;4996827;28;20136;-86
2021/08/21 00:08:28;;;;;;;10.83;4.97;;;;;;;24.46;45.83;98774.91;4971366;28;20050;-87
2021/08/21 00:10:54;;;;;;;11.70;4.43;;;;;;;24.59;45.64;98789.31;4995407;28;20045;-85
2021/08/21 00:13:21;;;;;;;12.95;4.40;;;;;;;24.80;45.97;98800.97;4978740;28;20057;-86
2021/08/21 00:15:47;;;;;;;11.83;4.53;;;;;;;24.58;45.75;98770.16;4996755;28;21109;-88
2021/08/21 00:18:14;;;;;;;11.02;4.70;;;;;;;24.82;45.59;98796.56;4996526;28;20047;-87
2021/08/21 00:20:40;;;;;;;22.92;4.80;;;;;;;24.40;45.43;98734.59;4979523;28;20505;-89
2021/08/21 00:23:09;;;;;;;13.43;4.72;;;;;;;24.58;45.48;98764.56;4996095;28;20092;-87
2021/08/21 00:25:37;;;;;;;12.98;4.65;;;;;;;24.83;45.27;98803.75;4979305;28;20045;-87
2021/08/21 00:28:04;;;;;;;13.55;4.75;;;;;;;24.52;45.41;98758.56;4978611;28;20550;-85
2021/08/21 00:30:30;;;;;;;13.43;4.43;;;;;;;24.68;45.29;98774.16;4994285;28;20045;-87
2021/08/21 00:33:08;;;;;;;11.82;4.80;;;;;;;24.75;45.10;98783.34;4994843;28;20312;-87
2021/08/21 00:35:35;;;;;;;9.70;4.83;;;;;;;24.86;45.38;98799.38;4957660;28;20708;-85
2021/08/21 00:38:01;;;;;;;11.93;4.50;;;;;;;24.71;45.14;98776.16;4948678;28;20431;-87
2021/08/21 00:40:27;;;;;;;13.07;5.32;;;;;;;24.49;45.33;98743.38;4975240;28;20352;-85
2021/08/21 00:42:55;;;;;;;11.80;4.75;;;;;;;24.89;45.40;98798.59;4970621;28;20050;-87
2021/08/21 00:45:22;;;;;;;10.85;4.70;;;;;;;24.72;45.58;98772.16;4994247;28;20057;-86
2021/08/21 00:47:48;;;;;;;18.40;4.80;;;;;;;24.71;45.25;98770.56;4994429;28;20065;-85
2021/08/21 00:50:15;;;;;;;16.20;4.57;;;;;;;24.73;45.24;98768.19;4994910;28;20053;-80
2021/08/21 00:52:41;;;;;;;13.70;5.20;;;;;;;24.80;45.52;98790.59;4996055;28;20526;-82
2021/08/21 00:55:09;;;;;;;14.98;4.93;;;;;;;24.65;45.38;98772.94;4994714;28;20344;-87
2021/08/21 00:57:35;;;;;;;16.02;4.57;;;;;;;24.64;45.51;98765.75;4986300;28;20058;-88
2021/08/21 01:00:04;;;;;;;12.80;4.32;;;;;;;24.85;45.39;98784.59;4997149;28;20042;-88
2021/08/21 01:02:32;;;;;;;13.50;4.90;;;;;;;24.75;45.52;98777.00;4983912;28;20136;-86
2021/08/21 01:04:59;;;;;;;16.98;4.45;;;;;;;24.83;45.13;98784.19;4971102;28;20054;-87
2021/08/21 01:07:35;;;;;;;9.50;4.13;;;;;;;24.64;45.16;98754.59;5004081;28;20078;-85
2021/08/21 01:10:06;;;;;;;12.60;4.72;;;;;;;24.84;45.40;98785.81;4994316;28;20057;-85
2021/08/21 01:12:35;;;;;;;12.32;4.43;;;;;;;24.84;45.35;98801.78;4995542;28;20050;-85
2021/08/21 01:15:05;;;;;;;15.77;4.50;;;;;;;24.83;45.31;98802.97;4995932;28;20141;-84
2021/08/21 01:17:34;;;;;;;11.02;4.20;;;;;;;24.74;45.47;98775.34;4994886;28;20049;-85
2021/08/21 01:20:04;;;;;;;12.30;4.75;;;;;;;24.76;45.47;98785.00;4982876;28;20502;-86
2021/08/21 01:22:32;;;;;;;12.38;4.60;;;;;;;24.79;45.42;98783.41;4983150;28;20050;-86
2021/08/21 01:25:19;;;;;;;12.77;4.20;;;;;;;24.82;45.22;98781.78;5002738;28;20046;-88
2021/08/21 01:27:47;;;;;;;11.45;4.03;;;;;;;24.53;45.55;98734.22;4967594;28;20204;-87
2021/08/21 01:30:23;;;;;;;10.75;4.10;;;;;;;24.76;45.34;98759.06;5000424;28;20045;-87
2021/08/21 01:32:54;;;;;;;9.15;4.65;;;;;;;24.78;45.42;98763.03;4999060;28;20058;-86
2021/08/21 01:35:51;;;;;;;27.23;4.10;;;;;;;24.56;45.36;98736.22;4995483;28;20054;-88
2021/08/21 01:38:18;;;;;;;12.98;4.18;;;;;;;24.36;45.41;98706.66;4988076;28;20049;-87
2021/08/21 01:40:54;;;;;;;10.20;4.03;;;;;;;24.40;45.33;98712.25;5002397;28;20049;-88
2021/08/21 01:43:24;;;;;;;12.10;4.30;;;;;;;24.54;45.34;98733.81;5015972;28;20038;-87
2021/08/21 01:45:50;;;;;;;10.65;4.03;;;;;;;24.54;45.55;98736.59;4998293;28;20044;-87
2021/08/21 01:48:18;;;;;;;10.55;3.88;;;;;;;24.68;45.32;98754.59;4995401;28;20065;-87
2021/08/21 01:50:46;;;;;;;10.75;4.30;;;;;;;24.49;45.42;98723.81;5019325;28;20041;-88
2021/08/21 01:53:13;;;;;;;12.20;4.43;;;;;;;24.72;45.34;98750.63;5015363;28;20532;-88
2021/08/21 01:55:44;;;;;;;10.98;4.18;;;;;;;24.54;45.38;98727.44;4967441;28;20137;-88
2021/08/21 01:58:20;;;;;;;9.43;4.45;;;;;;;24.48;45.80;98708.25;5014929;28;20057;-88
2021/08/21 02:01:03;;;;;;;10.65;4.15;;;;;;;24.32;45.77;98705.03;4969959;28;20050;-88
2021/08/21 02:03:36;;;;;;;10.45;4.00;;;;;;;24.57;45.71;98732.22;4967714;28;20073;-88
2021/08/21 02:06:04;;;;;;;10.23;4.15;;;;;;;24.62;45.54;98731.84;4972359;28;20050;-87
2021/08/21 02:08:31;;;;;;;16.23;4.28;;;;;;;24.56;45.68;98739.81;4972047;28;20065;-88
2021/08/21 02:10:57;;;;;;;9.02;3.97;;;;;;;24.42;45.59;98706.25;4998941;28;20050;-88
2021/08/21 02:13:25;;;;;;;10.25;4.25;;;;;;;24.59;45.74;98741.00;4999003;28;20092;-88
2021/08/21 02:15:51;;;;;;;10.45;4.32;;;;;;;24.75;45.62;98760.22;4983334;28;20054;-87
2021/08/21 02:18:19;;;;;;;11.23;4.10;;;;;;;24.75;45.65;98769.38;5000319;28;20576;-88
2021/08/21 02:21:09;;;;;;;8.73;4.10;;;;;;;24.74;45.80;98769.78;4999600;28;20043;-87
2021/08/21 02:23:35;;;;;;;11.98;4.28;;;;;;;24.72;46.16;98767.38;4999298;28;20145;-91
2021/08/21 02:26:04;;;;;;;9.38;3.90;;;;;;;24.57;46.17;98754.59;5000014;28;20052;-88
2021/08/21 02:28:33;;;;;;;12.75;4.15;;;;;;;24.70;46.09;98775.38;4983444;28;20046;-88
2021/08/21 02:31:00;;;;;;;14.32;4.20;;;;;;;24.67;45.77;98770.59;4982386;28;20054;-89
2021/08/21 02:33:28;;;;;;;9.95;4.28;;;;;;;24.68;45.88;98765.78;5000534;28;20049;-89
2021/08/21 02:35:58;;;;;;;14.60;4.38;;;;;;;24.51;46.11;98745.78;4985853;28;20164;-88
2021/08/21 02:38:24;;;;;;;10.48;4.45;;;;;;;24.54;46.10;98753.38;4951811;28;20076;-88
2021/08/21 02:40:51;;;;;;;9.27;3.70;;;;;;;24.41;46.11;98730.59;4945673;28;20046;-87
2021/08/21 02:43:17;;;;;;;11.75;3.85;;;;;;;24.64;46.18;98749.00;4976765;28;20335;-90
2021/08/21 02:45:43;;;;;;;16.55;4.25;;;;;;;24.58;45.65;98739.41;4972073;28;20545;-89
2021/08/21 02:48:10;;;;;;;;;;;;;;;24.69;46.10;98747.81;4999335;28;20568;-86
2021/08/21 02:50:37;;;;;;;55.80;6.87;;;;;;;24.41;45.95;98710.25;4982119;28;19959;-88
2021/08/21 02:53:03;;;;;;;43.90;5.82;;;;;;;24.62;46.02;98745.81;4982307;28;20494;-85
2021/08/21 02:55:29;;;;;;;48.10;5.78;;;;;;;24.61;45.89;98747.81;4971118;28;20049;-87
2021/08/21 02:57:56;;;;;;;35.88;5.10;;;;;;;24.64;46.12;98757.38;4979379;28;20061;-87
2021/08/21 03:00:31;;;;;;;16.77;4.07;;;;;;;24.48;45.92;98730.59;4998056;28;20411;-88
2021/08/21 03:03:00;;;;;;;23.23;4.43;;;;;;;24.61;45.70;98761.78;5020944;28;20111;-88
2021/08/21 03:05:30;;;;;;;16.38;4.03;;;;;;;24.55;45.98;98754.97;4997448;28;20211;-88
2021/08/21 03:07:58;;;;;;;;;;;;;;;24.59;45.87;98757.78;4982753;28;20050;-88
2021/08/21 03:10:24;;;;;;;15.48;4.03;;;;;;;24.54;45.90;98756.16;5004474;28;20421;-88
2021/08/21 03:12:56;;;;;;;11.23;4.00;;;;;;;24.50;45.75;98747.78;4984399;28;20062;-89
2021/08/21 03:15:24;;;;;;;8.93;3.70;;;;;;;24.47;45.85;98745.78;4981352;28;20043;-88
2021/08/21 03:18:03;;;;;;;10.60;3.75;;;;;;;24.35;45.87;98732.97;4966127;28;20049;-87
2021/08/21 03:20:35;;;;;;;11.70;3.53;;;;;;;24.17;45.51;98685.44;4997815;28;20499;-87
2021/08/21 03:23:05;;;;;;;16.50;4.25;;;;;;;24.54;45.74;98741.41;4999042;28;20140;-89
2021/08/21 03:25:34;;;;;;;26.20;5.13;;;;;;;24.23;45.39;98697.03;4980873;28;20176;-88
2021/08/21 03:28:06;;;;;;;11.30;3.45;;;;;;;24.43;45.44;98727.41;4981580;28;20050;-88
2021/08/21 03:30:33;;;;;;;15.32;3.67;;;;;;;24.33;45.15;98709.44;4996880;28;20045;-89
2021/08/21 03:33:09;;;;;;;9.25;3.22;;;;;;;24.49;45.42;98729.41;4997540;28;20041;-89
2021/08/21 03:35:36;;;;;;;12.05;3.30;;;;;;;24.21;45.08;98683.47;4973834;28;20093;-90
2021/08/21 03:38:05;;;;;;;13.02;3.30;;;;;;;24.12;44.86;98666.28;4986470;28;20054;-91
2021/08/21 03:40:43;;;;;;;9.48;3.28;;;;;;;24.13;44.97;98669.91;4956542;28;20065;-90
2021/08/21 03:43:14;;;;;;;8.57;3.40;;;;;;;24.13;44.78;98665.09;4989014;28;20038;-89
2021/08/21 03:45:44;;;;;;;11.27;3.17;;;;;;;24.47;44.48;98714.25;4981272;28;20053;-90
2021/08/21 03:48:12;;;;;;;9.95;3.30;;;;;;;24.40;44.35;98703.88;4972577;28;20410;-88
2021/08/21 03:50:39;;;;;;;10.95;3.22;;;;;;;24.44;44.29;98707.47;4982795;28;20479;-88
2021/08/21 03:53:08;;;;;;;11.63;3.17;;;;;;;24.57;44.26;98726.66;4980951;28;20051;-88
2021/08/21 03:55:41;;;;;;;7.78;2.95;;;;;;;24.57;44.01;98737.81;4997450;28;20044;-88
2021/08/21 03:58:10;;;;;;;7.82;3.05;;;;;;;24.57;44.25;98743.41;4970903;28;20120;-89
2021/08/21 04:00:37;;;;;;;13.35;3.67;;;;;;;24.52;44.23;98736.22;4999072;28;20141;-88
2021/08/21 04:03:10;;;;;;;10.10;3.30;;;;;;;24.56;44.14;98736.22;4974107;28;20405;-88
2021/08/21 04:05:38;;;;;;;9.35;3.00;;;;;;;24.57;43.79;98749.00;4965845;28;20042;-90
2021/08/21 04:08:09;;;;;;;8.77;2.97;;;;;;;24.52;43.82;98732.63;5005658;28;20514;-89
2021/08/21 04:10:37;;;;;;;12.60;3.40;;;;;;;24.41;43.77;98708.25;4999893;28;20081;-90
2021/08/21 04:13:04;;;;;;;7.68;3.05;;;;;;;24.48;43.97;98725.03;4977112;28;20042;-89
2021/08/21 04:15:30;;;;;;;11.67;2.97;;;;;;;24.36;43.88;98711.44;5004875;28;20101;-87
2021/08/21 04:17:57;;;;;;;9.25;3.30;;;;;;;24.35;44.01;98721.81;5009376;28;20388;-91
2021/08/21 04:20:24;;;;;;;13.98;3.20;;;;;;;24.50;43.98;98724.63;5000617;28;20050;-79
2021/08/21 04:22:51;;;;;;;11.55;3.35;;;;;;;24.50;44.05;98728.22;4996641;28;20046;-79
2021/08/21 04:25:18;;;;;;;7.90;2.95;;;;;;;24.49;43.93;98723.81;4997555;28;20541;-78
2021/08/21 04:27:45;;;;;;;11.65;3.13;;;;;;;24.49;44.04;98728.63;4979345;28;20046;-79
2021/08/21 04:30:13;;;;;;;9.05;2.88;;;;;;;24.47;44.20;98729.00;4998089;28;20052;-78
2021/08/21 04:32:40;;;;;;;9.65;3.33;;;;;;;24.52;44.07;98736.22;4979820;28;20049;-78
2021/08/21 04:35:07;;;;;;;18.17;2.97;;;;;;;24.47;43.83;98712.25;4964961;28;20150;-78
2021/08/21 04:37:33;;;;;;;9.90;3.08;;;;;;;24.58;44.01;98728.25;4955921;28;20042;-76
2021/08/21 04:40:00;;;;;;;7.30;3.03;;;;;;;24.56;43.95;98725.84;4956614;28;20061;-77
2021/08/21 04:42:27;;;;;;;10.53;3.20;;;;;;;24.58;43.68;98723.44;4966727;28;20046;-78
2021/08/21 04:44:59;;;;;;;9.65;2.97;;;;;;;24.60;43.52;98734.22;4995515;28;20127;-77
2021/08/21 04:47:29;;;;;;;8.73;2.65;;;;;;;24.61;43.58;98725.47;4995841;28;20046;-79
2021/08/21 04:49:56;;;;;;;10.13;2.80;;;;;;;24.61;43.75;98727.44;4997104;28;20068;-77
2021/08/21 04:52:22;;;;;;;9.68;2.95;;;;;;;24.61;43.60;98731.06;4980375;28;20081;-78
2021/08/21 04:54:50;;;;;;;10.30;3.20;;;;;;;24.60;43.68;98729.47;4973073;28;20077;-77
2021/08/21 04:57:17;;;;;;;6.97;2.55;;;;;;;24.63;43.59;98723.06;4983263;28;20077;-77
2021/08/21 04:59:49;;;;;;;10.88;2.90;;;;;;;24.70;43.48;98725.06;4999315;28;20052;-77
2021/08/21 05:02:16;;;;;;;12.68;2.88;;;;;;;24.74;43.43;98719.47;5006846;28;20149;-78
2021/08/21 05:04:42;;;;;;;8.88;3.10;;;;;;;24.72;43.64;98730.25;4998665;28;20046;-78
2021/08/21 05:07:09;;;;;;;9.88;3.17;;;;;;;24.73;43.51;98729.88;4983110;28;20522;-79
2021/08/21 05:09:41;;;;;;;10.68;3.47;;;;;;;24.75;43.35;98735.06;4999620;28;20046;-78
2021/08/21 05:12:12;;;;;;;11.57;3.38;;;;;;;24.73;43.26;98729.88;4979519;28;20412;-77
2021/08/21 05:14:50;;;;;;;21.83;3.40;;;;;;;24.77;43.44;98739.06;4975502;28;20715;-78
2021/08/21 05:17:16;;;;;;;12.13;2.95;;;;;;;24.76;43.30;98726.31;4983439;28;20482;-77
2021/08/21 05:20:25;;;;;;;7.90;3.05;;;;;;;24.78;43.25;98731.50;4990656;28;20600;-77
2021/08/21 05:23:14;;;;;;;11.55;2.80;;;;;;;24.81;43.14;98741.06;4998831;28;20050;-77
2021/08/21 05:25:41;;;;;;;9.93;3.45;;;;;;;24.81;43.54;98738.28;5000794;28;20053;-77
2021/08/21 05:28:08;;;;;;;7.75;2.65;;;;;;;24.83;43.58;98733.13;4984376;28;20418;-77
2021/08/21 05:30:38;;;;;;;7.70;3.20;;;;;;;24.86;43.39;98733.09;4986207;28;20061;-78
2021/08/21 05:33:08;;;;;;;8.63;2.70;;;;;;;24.88;43.44;98735.50;5000855;28;20123;-78
2021/08/21 05:35:34;;;;;;;11.25;3.03;;;;;;;24.87;43.58;98725.53;4980416;28;20112;-77
2021/08/21 05:38:00;;;;;;;11.35;3.20;;;;;;;24.86;43.23;98721.91;4977848;28;20073;-77
2021/08/21 05:40:26;;;;;;;10.57;2.95;;;;;;;24.90;43.29;98742.31;4977723;28;20445;-77
2021/08/21 05:42:52;;;;;;;8.27;3.22;;;;;;;24.92;43.41;98747.47;4993567;28;20042;-78
2021/08/21 05:45:20;;;;;;;11.57;3.05;;;;;;;24.92;43.26;98737.09;5001052;28;20054;-78
2021/08/21 05:47:48;;;;;;;14.23;2.90;;;;;;;25.00;43.23;98743.50;4975827;28;20046;-78
2021/08/21 05:50:14;;;;;;;8.27;2.70;;;;;;;24.99;43.23;98732.72;4999907;28;20150;-77
2021/08/21 05:52:40;;;;;;;12.82;3.10;;;;;;;25.00;43.18;98740.72;5003245;28;20108;-78
2021/08/21 05:55:07;;;;;;;14.32;3.22;;;;;;;24.90;43.14;98722.75;5017917;28;20068;-78
2021/08/21 05:57:42;;;;;;;11.32;3.50;;;;;;;24.96;43.14;98734.28;5009559;28;20064;-77
2021/08/21 06:00:10;;;;;;;8.40;2.65;;;;;;;25.04;42.97;98738.72;5000225;28;20042;-78
2021/08/21 06:02:39;;;;;;;10.30;3.05;;;;;;;25.06;43.41;98736.31;4999514;28;20050;-78
2021/08/21 06:05:07;;;;;;;9.45;3.25;;;;;;;25.10;43.16;98741.91;4997937;28;20042;-82
2021/08/21 06:07:34;;;;;;;13.02;2.97;;;;;;;25.17;43.14;98744.69;4982033;28;20043;-80
2021/08/21 06:10:05;;;;;;;10.98;2.90;;;;;;;25.17;43.02;98750.28;4998595;28;20466;-80
2021/08/21 06:12:32;;;;;;;8.23;2.65;;;;;;;25.20;42.96;98749.47;5014892;28;20049;-79
2021/08/21 06:14:58;;;;;;;8.38;2.83;;;;;;;25.12;43.01;98736.72;4998307;28;20046;-79
2021/08/21 06:17:24;;;;;;;8.48;3.03;;;;;;;25.20;42.75;98755.06;5000416;28;20097;-79
2021/08/21 06:19:50;;;;;;;8.95;3.40;;;;;;;25.16;42.80;98737.50;5000103;28;20050;-79
2021/08/21 06:22:20;;;;;;;16.90;3.40;;;;;;;25.27;42.84;98748.66;4999825;28;20618;-79
2021/08/21 06:24:46;;;;;;;9.45;3.10;;;;;;;25.26;43.18;98746.28;5000305;28;20054;-79
2021/08/21 06:27:15;;;;;;;10.93;2.90;;;;;;;25.27;43.00;98750.69;5000344;28;20042;-78
2021/08/21 06:29:41;;;;;;;8.55;2.90;;;;;;;25.32;42.99;98751.09;4984376;28;20058;-72
2021/08/21 06:32:08;;;;;;;8.15;3.13;;;;;;;25.23;43.09;98747.88;4995347;28;20057;-73
2021/08/21 06:34:34;;;;;;;10.05;3.22;;;;;;;25.24;42.83;98760.66;4999320;28;20061;-71
2021/08/21 06:37:05;;;;;;;13.47;3.23;;;;;;;25.30;42.89;98755.47;4973975;28;20046;-75
2021/08/21 06:39:38;;;;;;;9.88;3.40;;;;;;;25.25;42.92;98739.09;4958905;28;20975;-76
2021/08/21 06:42:04;;;;;;;13.77;3.25;;;;;;;25.15;42.63;98719.13;4984336;28;20141;-75
2021/08/21 06:44:37;;;;;;;13.48;3.70;;;;;;;25.14;42.95;98711.94;4996816;28;20082;-75
2021/08/21 06:47:05;;;;;;;15.63;3.63;;;;;;;25.28;43.17;98746.69;4972710;28;20046;-76
2021/08/21 06:49:32;;;;;;;10.88;3.20;;;;;;;25.22;43.29;98743.50;5000232;28;20275;-76
2021/08/21 06:51:58;;;;;;;9.57;3.00;;;;;;;25.30;42.86;98749.88;5009171;28;20062;-77
2021/08/21 06:54:24;;;;;;;9.60;3.65;;;;;;;25.32;43.06;98748.28;4998085;28;20140;-76
2021/08/21 06:56:51;;;;;;;10.20;3.28;;;;;;;25.33;43.23;98741.50;4982809;28;20054;-76
2021/08/21 06:59:17;;;;;;;13.10;3.22;;;;;;;25.42;43.09;98759.84;4973596;28;20576;-75
2021/08/21 07:01:43;;;;;;;10.18;3.40;;;;;;;25.43;43.04;98745.47;4996618;28;20052;-75
2021/08/21 07:04:10;;;;;;;17.38;3.63;;;;;;;25.51;42.88;98757.47;4981847;28;20069;-76
2021/08/21 07:06:38;;;;;;;11.75;3.45;;;;;;;25.59;42.89;98759.06;4997118;28;20050;-75
2021/08/21 07:09:04;;;;;;;13.40;3.30;;;;;;;25.62;42.62;98758.28;5001159;28;20080;-76
2021/08/21 07:11:33;;;;;;;10.90;3.43;;;;;;;25.30;42.96;98722.72;4995541;28;20077;-76
2021/08/21 07:14:06;;;;;;;11.45;3.13;;;;;;;25.39;42.94;98732.69;4996982;28;20313;-77
2021/08/21 07:16:32;;;;;;;16.23;3.92;;;;;;;25.56;42.80;98751.47;4997510;28;20047;-76
2021/08/21 07:19:00;;;;;;;10.50;3.25;;;;;;;25.41;42.79;98724.69;4994823;28;20045;-79
2021/08/21 07:21:29;;;;;;;11.07;3.40;;;;;;;25.50;42.66;98736.31;4983934;28;20046;-75
2021/08/21 07:24:18;;;;;;;18.35;3.75;;;;;;;25.24;42.71;98689.97;5034492;28;20050;-75
2021/08/21 07:26:53;;;;;;;10.15;3.40;;;;;;;25.22;43.01;98711.94;5009533;28;20048;-77
2021/08/21 07:30:04;;;;;;;11.60;3.53;;;;;;;24.99;43.16;98683.19;5013090;28;20428;-78
2021/08/21 07:32:35;;;;;;;13.63;3.78;;;;;;;25.24;43.31;98732.69;4998372;28;20105;-79
2021/08/21 07:35:05;;;;;;;15.02;3.45;;;;;;;24.89;43.34;98701.53;4994018;28;20817;-75
2021/08/21 07:37:36;;;;;;;14.20;3.65;;;;;;;25.13;43.38;98726.31;4971232;28;20566;-76
2021/08/21 07:40:12;;;;;;;11.27;3.90;;;;;;;25.15;43.64;98723.94;4972364;28;20395;-79
2021/08/21 07:42:39;;;;;;;17.67;4.00;;;;;;;25.26;43.44;98754.69;4983841;28;20046;-73
2021/08/21 07:45:11;;;;;;;14.63;3.92;;;;;;;25.25;43.36;98742.69;4994629;28;20038;-76
2021/08/21 07:47:37;;;;;;;12.65;3.70;;;;;;;25.13;43.70;98741.09;4997111;28;20053;-74
2021/08/21 07:50:05;;;;;;;13.75;3.75;;;;;;;25.27;43.74;98751.47;4963973;28;20046;-81
2021/08/21 07:52:31;;;;;;;16.00;4.10;;;;;;;25.30;43.83;98755.47;4995565;28;20109;-75
2021/08/21 07:55:02;;;;;;;9.88;3.45;;;;;;;25.38;43.79;98757.06;4990317;28;20105;-75
2021/08/21 07:57:28;;;;;;;16.52;3.72;;;;;;;25.40;43.86;98759.47;4997408;28;20446;-75
2021/08/21 07:59:54;;;;;;;15.60;3.97;;;;;;;25.34;43.57;98743.09;4996928;28;20050;-75
2021/08/21 08:02:21;;;;;;;10.48;3.80;;;;;;;25.36;43.56;98745.47;4995973;28;20197;-74
2021/08/21 08:05:05;;;;;;;12.25;3.88;;;;;;;25.31;43.73;98737.50;4995573;28;20054;-73
2021/08/21 08:07:35;;;;;;;11.48;3.60;;;;;;;25.20;43.84;98724.31;4995677;28;20532;-73
2021/08/21 08:10:01;;;;;;;14.75;3.75;;;;;;;25.33;43.82;98743.47;4995235;28;20061;-74
2021/08/21 08:12:27;;;;;;;14.57;3.88;;;;;;;25.41;43.74;98747.88;4996131;28;20631;-74
2021/08/21 08:14:53;;;;;;;11.53;4.30;;;;;;;25.42;43.93;98755.06;4997478;28;20500;-82
2021/08/21 08:17:20;;;;;;;16.77;4.13;;;;;;;25.35;43.83;98769.03;4980040;28;20050;-81
2021/08/21 08:19:46;;;;;;;19.48;4.15;;;;;;;25.23;43.65;98744.31;4996115;28;20072;-81
2021/08/21 08:22:13;;;;;;;10.50;3.53;;;;;;;25.32;43.84;98770.66;4997994;28;20133;-81
2021/08/21 08:24:39;;;;;;;11.97;3.80;;;;;;;25.30;44.14;98773.06;5019286;28;20397;-82
2021/08/21 08:27:05;;;;;;;11.88;3.60;;;;;;;25.23;43.95;98753.47;4994956;28;20831;-81
2021/08/21 08:29:31;;;;;;;12.40;3.80;;;;;;;25.28;44.08;98769.06;4979327;28;20065;-82
2021/08/21 08:31:57;;;;;;;10.55;3.80;;;;;;;25.19;44.17;98759.06;4980399;28;20077;-82
2021/08/21 08:34:24;;;;;;;9.97;4.23;;;;;;;25.22;44.38;98757.47;4996541;28;20050;-82
2021/08/21 08:36:53;;;;;;;14.55;3.80;;;;;;;25.18;44.25;98765.06;4973770;28;20316;-81
2021/08/21 08:39:22;;;;;;;15.90;3.72;;;;;;;25.19;44.20;98761.84;4958832;28;20066;-79
2021/08/21 08:41:52;;;;;;;8.93;3.97;;;;;;;25.01;44.21;98741.50;4976192;28;20077;-74
2021/08/21 08:44:27;;;;;;;13.88;3.97;;;;;;;25.25;44.37;98776.25;4984550;28;20050;-75
2021/08/21 08:46:54;;;;;;;11.10;3.55;;;;;;;25.14;44.17;98753.09;4961731;28;20046;-75
2021/08/21 08:55:49;;;;;;;11.93;3.20;;;;;;;25.11;43.92;98706.34;4902487;29;20086;-83
2021/08/21 08:59:09;;;;;;;9.70;3.28;;;;;;;25.55;43.45;98777.06;4850173;29;20057;-85
2021/08/21 09:02:33;;;;;;;10.48;3.65;;;;;;;25.66;43.27;98786.22;4795086;29;20097;-84
2021/08/21 09:15:37;;;;;;;14.50;3.83;;;;;;;25.57;43.20;98722.28;4916690;29;20072;-83
2021/08/21 09:27:11;;;;;;;12.80;3.83;;;;;;;26.00;42.71;98756.97;4989015;23;20150;-83
2021/08/21 09:30:08;;;;;;;14.38;3.83;;;;;;;25.74;42.39;98722.63;4876254;29;20051;-82
2021/08/21 09:32:37;;;;;;;12.77;4.05;;;;;;;25.79;42.62;98746.63;4913272;29;20055;-84
2021/08/21 09:35:13;;;;;;;12.05;3.80;;;;;;;25.99;42.64;98778.56;4892936;29;20062;-83
2021/08/21 09:37:50;;;;;;;14.97;3.97;;;;;;;25.85;42.70;98762.59;4897469;29;20516;-82
2021/08/21 09:40:34;;;;;;;10.85;4.05;;;;;;;25.72;42.53;98725.84;4900261;29;20055;-80
2021/08/21 09:43:05;;;;;;;11.25;3.38;;;;;;;25.89;42.49;98752.19;4897311;29;20059;-84
2021/08/21 09:45:35;;;;;;;11.95;3.78;;;;;;;25.91;42.61;98754.59;4913720;29;20668;-81
2021/08/21 09:48:04;;;;;;;12.38;3.97;;;;;;;26.02;42.76;98754.56;4916550;29;20059;-81
2021/08/21 09:50:41;;;;;;;9.90;4.03;;;;;;;25.99;42.83;98733.78;4917479;29;20060;-83
2021/08/21 10:02:35;;;;;;;15.68;3.95;;;;;;;27.07;41.92;98784.06;4914178;29;20596;-81
2021/08/21 10:05:02;;;;;;;16.38;4.20;;;;;;;27.18;41.69;98777.16;4895726;29;20103;-81
2021/08/21 10:07:51;;;;;;;32.38;4.40;;;;;;;26.98;41.73;98739.66;4896182;29;20075;-83
2021/08/21 10:10:25;;;;;;;19.58;4.88;;;;;;;27.11;41.53;98753.97;4871758;29;20064;-81
2021/08/21 10:13:08;;;;;;;11.02;3.75;;;;;;;26.98;41.55;98739.66;4879413;29;20417;-82
2021/08/21 10:16:12;;;;;;;14.07;4.40;;;;;;;26.97;41.28;98736.06;4894148;29;20084;-80
2021/08/21 10:18:52;;;;;;;8.93;3.75;;;;;;;27.21;41.25;98785.94;4880167;29;20063;-81
2021/08/21 10:24:53;;;;;;;;;;;;;;;;;;;;;
2021/08/21 10:27:36;;;;;;;12.70;3.80;;;;;;;26.87;41.65;98739.75;4919680;29;20056;-82
2021/08/21 10:30:23;;;;;;;18.65;4.25;;;;;;;27.20;41.49;98773.94;4908597;29;20066;-81
2021/08/21 10:33:14;;;;;;;13.60;3.90;;;;;;;26.99;41.44;98746.88;4903965;29;20058;-82
2021/08/21 10:36:05;;;;;;;17.25;3.95;;;;;;;27.22;41.29;98782.75;4900341;28;20052;-80
2021/08/21 10:38:43;;;;;;;11.70;4.07;;;;;;;27.15;41.12;98761.16;4865613;29;20531;-80
2021/08/21 10:42:05;;;;;;;8.45;3.42;;;;;;;27.51;41.27;98793.72;4865771;29;20090;-81
2021/08/21 10:49:42;;;;;;;13.13;3.50;;;;;;;27.21;40.88;98755.91;4845980;29;20054;-81
2021/08/21 10:52:56;;;;;;;13.68;4.30;;;;;;;27.42;41.13;98796.19;4822302;29;20052;-84
2021/08/21 10:55:24;;;;;;;11.15;3.72;;;;;;;27.50;40.90;98800.56;4911834;29;20548;-83
2021/08/21 10:58:20;;;;;;;14.60;4.03;;;;;;;27.54;40.55;98800.53;4890553;29;20055;-81
2021/08/21 11:01:08;;;;;;;18.02;4.15;;;;;;;27.50;40.57;98797.75;4861278;29;20049;-83
2021/08/21 11:04:24;;;;;;;10.70;3.90;;;;;;;27.32;41.05;98755.81;4828205;29;20141;-83
2021/08/21 11:07:48;;;;;;;12.43;3.95;;;;;;;27.15;40.75;98735.91;4854011;29;20052;-82
2021/08/21 11:10:37;;;;;;;13.30;3.80;;;;;;;27.20;40.87;98757.13;4822783;29;20060;-81
2021/08/21 11:17:34;;;;;;;16.60;4.07;;;;;;;27.41;40.52;98733.69;4827038;29;20449;-82
2021/08/21 11:20:24;;;;;;;20.70;4.03;;;;;;;27.64;39.97;98745.53;4874604;29;20064;-81
2021/08/21 11:23:20;;;;;;;13.98;4.05;;;;;;;27.88;40.47;98775.31;4857648;29;20206;-83
2021/08/21 11:25:46;;;;;;;12.40;3.97;;;;;;;27.73;40.08;98751.44;4888155;29;20123;-83
2021/08/21 11:28:20;;;;;;;12.48;3.70;;;;;;;27.52;39.99;98724.34;4885936;29;20465;-83
2021/08/21 11:31:15;;;;;;;21.63;4.57;;;;;;;27.78;40.21;98784.66;4878841;29;20167;-82
2021/08/21 11:33:54;;;;;;;15.25;4.30;;;;;;;27.71;40.72;98773.50;4895213;29;20052;-81
2021/08/21 11:36:33;;;;;;;11.57;4.10;;;;;;;27.52;40.46;98753.25;4882692;29;20067;-82
2021/08/21 11:39:07;;;;;;;17.67;4.40;;;;;;;27.79;40.12;98785.47;4861035;29;20052;-81
2021/08/21 11:41:34;;;;;;;14.07;4.38;;;;;;;27.36;40.22;98714.47;4874767;29;20139;-81
2021/08/21 11:44:25;;;;;;;14.60;4.13;;;;;;;27.43;40.06;98708.00;4899770;29;20528;-75
2021/08/21 11:47:10;;;;;;;12.20;4.22;;;;;;;27.87;40.21;98759.69;4918396;29;20108;-83
2021/08/21 11:49:38;;;;;;;12.43;3.95;;;;;;;28.13;39.65;98760.22;4913834;29;20521;-71
2021/08/21 11:52:05;;;;;;;11.05;3.85;;;;;;;28.42;39.14;98768.31;4893951;29;20079;-79
2021/08/21 11:54:31;;;;;;;;;;;;;;;28.44;39.17;98765.03;4894687;29;20064;-73
2021/08/21 11:56:59;;;;;;;16.00;3.95;;;;;;;28.31;39.04;98760.00;4893055;29;19942;-74
2021/08/21 11:59:25;;;;;;;17.50;3.92;;;;;;;28.42;39.19;98764.69;4911040;29;20071;-71
2021/08/21 12:02:11;;;;;;;10.90;3.90;;;;;;;28.73;38.90;98754.22;4910035;29;20297;-77
2021/08/21 12:04:52;;;;;;;9.98;3.60;;;;;;;28.86;38.55;98762.88;4910144;29;20052;-71
2021/08/21 12:07:30;;;;;;;11.68;3.58;;;;;;;28.90;38.60;98754.41;4910157;29;20107;-71
2021/08/21 12:09:58;;;;;;;13.25;3.90;;;;;;;29.00;38.30;98750.59;4911447;29;20148;-71
2021/08/21 12:12:24;;;;;;;18.15;3.92;;;;;;;29.16;37.98;98760.38;4892126;29;20052;-72
2021/08/21 12:14:50;;;;;;;16.60;3.90;;;;;;;29.43;37.58;98749.13;4913323;29;20523;-71
2021/08/21 12:17:16;;;;;;;17.27;4.13;;;;;;;29.56;37.01;98757.72;4893127;29;20048;-71
2021/08/21 12:19:44;;;;;;;15.20;4.80;;;;;;;29.68;36.56;98755.50;4893442;29;20044;-72
2021/08/21 12:22:12;;;;;;;20.02;4.60;;;;;;;29.73;36.53;98757.81;4908607;29;20163;-71
2021/08/21 12:24:52;;;;;;;27.25;4.40;;;;;;;29.81;36.17;98756.44;4911499;29;20532;-71
2021/08/21 12:27:23;;;;;;;18.42;3.97;;;;;;;30.03;35.96;98770.16;4908138;29;20535;-72
2021/08/21 12:30:05;;;;;;;17.10;4.50;;;;;;;30.19;35.76;98763.00;4892162;29;20060;-73
2021/08/21 12:32:31;;;;;;;19.92;4.30;;;;;;;30.48;35.29;98773.66;4892963;29;20540;-72
2021/08/21 12:35:18;;;;;;;13.60;4.05;;;;;;;30.39;35.81;98760.16;4888651;29;21099;-73
2021/08/21 12:38:04;;;;;;;19.80;5.97;;;;;;;30.11;37.86;98745.44;4874456;29;20529;-81
2021/08/21 12:40:30;;;;;;;31.75;7.05;;;;;;;29.23;41.38;98774.34;4887765;29;20056;-74